Main page
Satellite images 10-day forecastsClimateMarine weather Cyclones Lightning AirportsFAQ Newsletter About
Weather : Europe Africa North America South America Asia Australia-Oceania Others
Languages Contact

Waddington, England

RAF Waddington

latitude: 53-10N, longitude: 000-31W, elevation: 68 m


METAR: EGXW 012350Z 21013KT CAVOK 24/18 Q1011 BLU
TAF: missing

Time: 01:55 (00:55 UTC)

Current weather observation

The report was made 1 hour and 5 minutes ago, at 23:50 UTC
Wind 13 kt from the South/Southwest
Temperature 24°C
Humidity 69%
Pressure 1011 hPa
Visibility 10 km or more
no clouds below 1500 m and no cumulonimbus

Change units
The information on this site is subject to a disclaimer
Weather : Europe Africa North America South America Asia Australia-Oceania Others
Satellite images 10-day forecastsClimateMarine weather Cyclones Lightning AirportsFAQ Languages Contact Newsletter About